KDAL/DAL METAR and TAF weather

Enter ICAO airport designator
Station Type Date Time Source
KDAL METAR 2019/02/20 07:06 UTC NOAA

KDAL 200706Z 30005KT 9SM SCT007 BKN013 OVC075 04/03 A2993 RMK AO2 T00390028 $


Station Type Date Time Source
KDAL Decoded METAR 2019/02/20 07:06 UTC NOAA

DALLAS LOVE FIELD, TX, United States (KDAL) 32-51N 096-51W 158M
Feb 20, 2019 - 02:06 AM EST / 2019.02.20 0706 UTC
Wind: from the WNW (300 degrees) at 6 MPH (5 KT):0
Visibility: 9 mile(s):0
Sky conditions: overcast
Temperature: 39.0 F (3.9 C)
Dew Point: 37.0 F (2.8 C)
Relative Humidity: 92%
Pressure (altimeter): 29.93 in. Hg (1013 hPa)
ob: KDAL 200706Z 30005KT 9SM SCT007 BKN013 OVC075 04/03 A2993 RMK AO2 T00390028
cycle: 7

Station Type Date Time Source
KDAL TAF 2019/02/20 06:24 UTC NOAA

TAF KDAL 200521Z 2006/2106 31009KT P6SM BKN007
FM201000 29007KT P6SM SCT003 BKN012
TEMPO 2010/2014 BKN007
FM201400 26010KT P6SM SCT025 BKN200
FM210000 14005KT P6SM BKN200


Example: see airport list